sensor_id;sensor_type;location;lat;lon;timestamp;temperature;humidity
12845;DHT22;6489;48.508;9.206;2022-09-09T01:17:46;14.60;1.00
12845;DHT22;6489;48.508;9.206;2022-09-09T01:24:42;14.80;71.80
12845;DHT22;6489;48.508;9.206;2022-09-09T01:28:11;14.30;99.90
12845;DHT22;6489;48.508;9.206;2022-09-09T01:31:38;14.40;91.90
12845;DHT22;6489;48.508;9.206;2022-09-09T01:35:02;14.30;1.00
12845;DHT22;6489;48.508;9.206;2022-09-09T01:38:24;14.30;99.90
12845;DHT22;6489;48.508;9.206;2022-09-09T01:41:46;14.30;1.00
12845;DHT22;6489;48.508;9.206;2022-09-09T01:48:32;14.20;99.90
12845;DHT22;6489;48.508;9.206;2022-09-09T01:51:55;14.20;1.00
12845;DHT22;6489;48.508;9.206;2022-09-09T01:55:19;14.20;99.30
12845;DHT22;6489;48.508;9.206;2022-09-09T01:58:56;14.10;1.00
12845;DHT22;6489;48.508;9.206;2022-09-09T02:05:55;13.90;1.00
12845;DHT22;6489;48.508;9.206;2022-09-09T02:09:23;14.00;99.90
12845;DHT22;6489;48.508;9.206;2022-09-09T02:12:48;13.90;1.00
12845;DHT22;6489;48.508;9.206;2022-09-09T02:19:39;13.80;1.00
12845;DHT22;6489;48.508;9.206;2022-09-09T02:23:04;14.00;1.00
12845;DHT22;6489;48.508;9.206;2022-09-09T02:29:49;13.80;99.90
12845;DHT22;6489;48.508;9.206;2022-09-09T02:33:14;13.80;1.00
12845;DHT22;6489;48.508;9.206;2022-09-09T02:36:38;13.50;99.90
12845;DHT22;6489;48.508;9.206;2022-09-09T02:40:02;13.50;99.90
12845;DHT22;6489;48.508;9.206;2022-09-09T02:43:24;13.70;99.90
12845;DHT22;6489;48.508;9.206;2022-09-09T02:47:04;13.70;1.00
12845;DHT22;6489;48.508;9.206;2022-09-09T02:50:33;13.70;1.00
12845;DHT22;6489;48.508;9.206;2022-09-09T02:54:01;13.60;99.90
12845;DHT22;6489;48.508;9.206;2022-09-09T02:57:28;13.90;1.00
12845;DHT22;6489;48.508;9.206;2022-09-09T03:00:51;14.10;99.90
12845;DHT22;6489;48.508;9.206;2022-09-09T03:04:14;13.70;99.90
12845;DHT22;6489;48.508;9.206;2022-09-09T03:07:35;14.00;99.90
12845;DHT22;6489;48.508;9.206;2022-09-09T03:14:22;13.90;99.90
12845;DHT22;6489;48.508;9.206;2022-09-09T03:21:07;14.20;99.90
12845;DHT22;6489;48.508;9.206;2022-09-09T03:24:29;14.40;88.30
12845;DHT22;6489;48.508;9.206;2022-09-09T03:27:53;14.30;1.00
12845;DHT22;6489;48.508;9.206;2022-09-09T03:31:15;14.30;77.80
12845;DHT22;6489;48.508;9.206;2022-09-09T03:34:37;14.00;99.90
12845;DHT22;6489;48.508;9.206;2022-09-09T03:38:00;14.40;99.90
12845;DHT22;6489;48.508;9.206;2022-09-09T03:41:22;14.50;1.00
12845;DHT22;6489;48.508;9.206;2022-09-09T03:44:46;14.30;99.90
12845;DHT22;6489;48.508;9.206;2022-09-09T03:48:10;14.80;99.90
12845;DHT22;6489;48.508;9.206;2022-09-09T03:58:19;14.00;99.90
12845;DHT22;6489;48.508;9.206;2022-09-09T04:05:06;14.80;1.00
12845;DHT22;6489;48.508;9.206;2022-09-09T04:15:14;15.10;99.90
12845;DHT22;6489;48.508;9.206;2022-09-09T04:18:37;14.90;1.00
12845;DHT22;6489;48.508;9.206;2022-09-09T04:21:59;14.80;99.90
12845;DHT22;6489;48.508;9.206;2022-09-09T04:28:43;14.70;1.00
12845;DHT22;6489;48.508;9.206;2022-09-09T04:32:05;14.90;1.00
12845;DHT22;6489;48.508;9.206;2022-09-09T04:35:29;14.80;99.90
12845;DHT22;6489;48.508;9.206;2022-09-09T04:38:51;14.90;99.90
12845;DHT22;6489;48.508;9.206;2022-09-09T04:45:36;15.10;99.90
12845;DHT22;6489;48.508;9.206;2022-09-09T04:49:00;14.40;99.90
12845;DHT22;6489;48.508;9.206;2022-09-09T04:52:24;15.00;1.00
12845;DHT22;6489;48.508;9.206;2022-09-09T04:55:46;14.50;99.90
12845;DHT22;6489;48.508;9.206;2022-09-09T04:59:08;14.80;99.90
12845;DHT22;6489;48.508;9.206;2022-09-09T05:02:30;14.70;99.90
12845;DHT22;6489;48.508;9.206;2022-09-09T05:05:52;14.90;99.90
12845;DHT22;6489;48.508;9.206;2022-09-09T05:09:15;14.60;1.00
12845;DHT22;6489;48.508;9.206;2022-09-09T05:12:37;14.80;99.90
12845;DHT22;6489;48.508;9.206;2022-09-09T05:26:09;14.80;1.00
12845;DHT22;6489;48.508;9.206;2022-09-09T05:29:33;14.70;99.90
12845;DHT22;6489;48.508;9.206;2022-09-09T05:39:41;15.00;99.90
12845;DHT22;6489;48.508;9.206;2022-09-09T05:46:26;15.10;99.90
12845;DHT22;6489;48.508;9.206;2022-09-09T05:49:48;15.40;1.00
12845;DHT22;6489;48.508;9.206;2022-09-09T05:53:10;15.60;99.90
12845;DHT22;6489;48.508;9.206;2022-09-09T05:59:55;15.60;1.00
12845;DHT22;6489;48.508;9.206;2022-09-09T06:03:17;16.10;99.90
12845;DHT22;6489;48.508;9.206;2022-09-09T06:06:39;15.90;1.00
12845;DHT22;6489;48.508;9.206;2022-09-09T06:10:02;15.80;99.90
12845;DHT22;6489;48.508;9.206;2022-09-09T06:13:24;15.40;99.90
12845;DHT22;6489;48.508;9.206;2022-09-09T06:16:48;16.00;97.10
12845;DHT22;6489;48.508;9.206;2022-09-09T06:20:10;16.30;99.90
12845;DHT22;6489;48.508;9.206;2022-09-09T06:33:42;16.50;1.00
12845;DHT22;6489;48.508;9.206;2022-09-09T06:37:04;16.80;40.60
12845;DHT22;6489;48.508;9.206;2022-09-09T06:40:27;17.60;21.70
12845;DHT22;6489;48.508;9.206;2022-09-09T06:43:49;17.50;1.00
12845;DHT22;6489;48.508;9.206;2022-09-09T06:47:11;18.40;1.00
12845;DHT22;6489;48.508;9.206;2022-09-09T06:50:34;18.70;1.00
12845;DHT22;6489;48.508;9.206;2022-09-09T06:53:57;19.80;1.00
12845;DHT22;6489;48.508;9.206;2022-09-09T06:57:19;20.60;1.00
12845;DHT22;6489;48.508;9.206;2022-09-09T07:00:41;20.30;1.00
12845;DHT22;6489;48.508;9.206;2022-09-09T07:04:04;20.00;1.00
12845;DHT22;6489;48.508;9.206;2022-09-09T07:07:29;19.90;1.00
12845;DHT22;6489;48.508;9.206;2022-09-09T07:10:51;19.80;1.00
12845;DHT22;6489;48.508;9.206;2022-09-09T07:17:37;19.50;1.00
12845;DHT22;6489;48.508;9.206;2022-09-09T07:20:59;19.80;1.00
12845;DHT22;6489;48.508;9.206;2022-09-09T07:24:24;19.90;1.00
12845;DHT22;6489;48.508;9.206;2022-09-09T07:27:45;20.20;1.00
12845;DHT22;6489;48.508;9.206;2022-09-09T07:31:13;19.90;1.00
12845;DHT22;6489;48.508;9.206;2022-09-09T07:34:35;20.30;1.00
12845;DHT22;6489;48.508;9.206;2022-09-09T07:41:22;20.50;1.00
12845;DHT22;6489;48.508;9.206;2022-09-09T07:44:45;20.40;1.00
12845;DHT22;6489;48.508;9.206;2022-09-09T07:51:31;21.50;1.00
12845;DHT22;6489;48.508;9.206;2022-09-09T07:54:53;22.00;1.00
12845;DHT22;6489;48.508;9.206;2022-09-09T08:01:40;21.70;1.00
12845;DHT22;6489;48.508;9.206;2022-09-09T08:05:03;21.80;1.00
12845;DHT22;6489;48.508;9.206;2022-09-09T08:08:26;22.50;1.00
12845;DHT22;6489;48.508;9.206;2022-09-09T08:15:12;21.60;1.00
12845;DHT22;6489;48.508;9.206;2022-09-09T08:25:19;20.90;1.00
12845;DHT22;6489;48.508;9.206;2022-09-09T08:28:41;21.20;1.00
12845;DHT22;6489;48.508;9.206;2022-09-09T08:32:05;20.90;1.00
12845;DHT22;6489;48.508;9.206;2022-09-09T08:35:26;20.30;1.00
12845;DHT22;6489;48.508;9.206;2022-09-09T08:38:54;20.90;1.00
12845;DHT22;6489;48.508;9.206;2022-09-09T08:42:30;20.80;1.00
12845;DHT22;6489;48.508;9.206;2022-09-09T08:46:00;20.80;1.00
12845;DHT22;6489;48.508;9.206;2022-09-09T08:59:46;20.60;1.00
12845;DHT22;6489;48.508;9.206;2022-09-09T09:03:15;21.00;1.00
12845;DHT22;6489;48.508;9.206;2022-09-09T09:06:49;21.10;1.00
12845;DHT22;6489;48.508;9.206;2022-09-09T09:10:25;21.20;1.00
12845;DHT22;6489;48.508;9.206;2022-09-09T09:24:14;22.80;1.00
12845;DHT22;6489;48.508;9.206;2022-09-09T09:27:42;23.30;1.00
12845;DHT22;6489;48.508;9.206;2022-09-09T09:31:06;23.10;1.00
12845;DHT22;6489;48.508;9.206;2022-09-09T09:34:28;23.80;1.00
12845;DHT22;6489;48.508;9.206;2022-09-09T09:37:50;24.10;1.00
12845;DHT22;6489;48.508;9.206;2022-09-09T09:41:14;24.50;1.00
12845;DHT22;6489;48.508;9.206;2022-09-09T09:44:38;25.10;1.00
12845;DHT22;6489;48.508;9.206;2022-09-09T09:51:24;24.10;1.00
12845;DHT22;6489;48.508;9.206;2022-09-09T09:58:15;25.00;1.00
12845;DHT22;6489;48.508;9.206;2022-09-09T10:03:38;24.60;1.40
12845;DHT22;6489;48.508;9.206;2022-09-09T10:14:15;23.90;1.00
12845;DHT22;6489;48.508;9.206;2022-09-09T10:17:47;24.10;1.00
12845;DHT22;6489;48.508;9.206;2022-09-09T10:28:57;24.00;1.00
12845;DHT22;6489;48.508;9.206;2022-09-09T10:39:33;25.60;1.00
12845;DHT22;6489;48.508;9.206;2022-09-09T10:43:04;25.30;1.00
12845;DHT22;6489;48.508;9.206;2022-09-09T10:46:35;25.00;99.90
12845;DHT22;6489;48.508;9.206;2022-09-09T10:53:51;25.20;99.90
12845;DHT22;6489;48.508;9.206;2022-09-09T10:57:21;25.50;99.90
12845;DHT22;6489;48.508;9.206;2022-09-09T11:00:48;25.50;99.90
12845;DHT22;6489;48.508;9.206;2022-09-09T11:07:41;24.90;1.00
12845;DHT22;6489;48.508;9.206;2022-09-09T11:11:10;24.90;99.90
12845;DHT22;6489;48.508;9.206;2022-09-09T11:14:41;25.20;99.90
12845;DHT22;6489;48.508;9.206;2022-09-09T11:18:05;26.00;1.00
12845;DHT22;6489;48.508;9.206;2022-09-09T11:21:30;24.70;1.00
12845;DHT22;6489;48.508;9.206;2022-09-09T11:28:32;25.40;99.90
12845;DHT22;6489;48.508;9.206;2022-09-09T11:35:38;24.00;99.90
12845;DHT22;6489;48.508;9.206;2022-09-09T11:39:26;23.10;99.90
12845;DHT22;6489;48.508;9.206;2022-09-09T11:50:08;21.90;1.00
12845;DHT22;6489;48.508;9.206;2022-09-09T11:53:31;22.50;1.00
12845;DHT22;6489;48.508;9.206;2022-09-09T12:00:34;23.80;99.90
12845;DHT22;6489;48.508;9.206;2022-09-09T12:14:37;25.00;99.90
12845;DHT22;6489;48.508;9.206;2022-09-09T12:17:59;25.00;1.00
12845;DHT22;6489;48.508;9.206;2022-09-09T12:21:33;25.50;99.90
12845;DHT22;6489;48.508;9.206;2022-09-09T12:25:05;25.60;99.90
12845;DHT22;6489;48.508;9.206;2022-09-09T12:28:42;25.70;1.00
12845;DHT22;6489;48.508;9.206;2022-09-09T12:32:10;25.50;1.00
12845;DHT22;6489;48.508;9.206;2022-09-09T12:35:33;24.70;1.00
12845;DHT22;6489;48.508;9.206;2022-09-09T12:38:56;24.20;1.00
12845;DHT22;6489;48.508;9.206;2022-09-09T12:42:22;24.00;99.90
12845;DHT22;6489;48.508;9.206;2022-09-09T12:45:45;23.50;1.00
12845;DHT22;6489;48.508;9.206;2022-09-09T12:52:47;24.40;99.90
12845;DHT22;6489;48.508;9.206;2022-09-09T12:56:20;24.50;99.90
12845;DHT22;6489;48.508;9.206;2022-09-09T13:13:25;24.10;99.90
12845;DHT22;6489;48.508;9.206;2022-09-09T13:16:59;23.90;99.90
12845;DHT22;6489;48.508;9.206;2022-09-09T13:37:53;23.10;1.00
12845;DHT22;6489;48.508;9.206;2022-09-09T13:41:19;23.80;1.00
12845;DHT22;6489;48.508;9.206;2022-09-09T13:44:41;23.30;1.00
12845;DHT22;6489;48.508;9.206;2022-09-09T13:48:09;23.90;99.90
12845;DHT22;6489;48.508;9.206;2022-09-09T13:51:36;23.70;99.90
12845;DHT22;6489;48.508;9.206;2022-09-09T13:54:59;24.70;1.00
12845;DHT22;6489;48.508;9.206;2022-09-09T14:01:45;24.30;1.00
12845;DHT22;6489;48.508;9.206;2022-09-09T14:08:30;24.20;99.90
12845;DHT22;6489;48.508;9.206;2022-09-09T14:11:57;24.80;1.00
12845;DHT22;6489;48.508;9.206;2022-09-09T14:15:20;24.90;1.00
12845;DHT22;6489;48.508;9.206;2022-09-09T14:18:42;24.40;1.00
12845;DHT22;6489;48.508;9.206;2022-09-09T14:22:04;24.40;1.00
12845;DHT22;6489;48.508;9.206;2022-09-09T14:38:57;23.10;1.00
12845;DHT22;6489;48.508;9.206;2022-09-09T14:42:20;23.00;1.00
12845;DHT22;6489;48.508;9.206;2022-09-09T14:49:04;22.70;1.00
12845;DHT22;6489;48.508;9.206;2022-09-09T14:52:26;23.20;1.00
12845;DHT22;6489;48.508;9.206;2022-09-09T14:55:49;23.30;1.00
12845;DHT22;6489;48.508;9.206;2022-09-09T14:59:13;23.70;1.00
12845;DHT22;6489;48.508;9.206;2022-09-09T15:02:35;23.00;1.00
12845;DHT22;6489;48.508;9.206;2022-09-09T15:09:19;22.20;1.00
12845;DHT22;6489;48.508;9.206;2022-09-09T15:16:06;22.10;99.90
12845;DHT22;6489;48.508;9.206;2022-09-09T15:22:52;21.20;1.00
12845;DHT22;6489;48.508;9.206;2022-09-09T15:29:37;21.70;1.00
12845;DHT22;6489;48.508;9.206;2022-09-09T15:33:08;21.20;99.90
12845;DHT22;6489;48.508;9.206;2022-09-09T15:36:32;21.00;99.90
12845;DHT22;6489;48.508;9.206;2022-09-09T15:43:19;21.50;1.00
12845;DHT22;6489;48.508;9.206;2022-09-09T15:46:42;21.00;99.90
12845;DHT22;6489;48.508;9.206;2022-09-09T15:50:06;20.50;1.00
12845;DHT22;6489;48.508;9.206;2022-09-09T16:07:01;20.60;1.00
12845;DHT22;6489;48.508;9.206;2022-09-09T16:10:24;21.10;1.00
12845;DHT22;6489;48.508;9.206;2022-09-09T16:13:47;21.10;1.00
12845;DHT22;6489;48.508;9.206;2022-09-09T16:20:32;20.70;1.00
12845;DHT22;6489;48.508;9.206;2022-09-09T16:23:56;21.20;1.00
12845;DHT22;6489;48.508;9.206;2022-09-09T16:37:28;20.80;1.00
12845;DHT22;6489;48.508;9.206;2022-09-09T16:40:51;20.60;99.90
12845;DHT22;6489;48.508;9.206;2022-09-09T16:44:20;20.70;1.00
12845;DHT22;6489;48.508;9.206;2022-09-09T16:51:06;20.40;1.00
12845;DHT22;6489;48.508;9.206;2022-09-09T16:54:28;20.70;1.00
12845;DHT22;6489;48.508;9.206;2022-09-09T17:01:14;19.50;1.00
12845;DHT22;6489;48.508;9.206;2022-09-09T17:04:36;19.90;1.00
12845;DHT22;6489;48.508;9.206;2022-09-09T17:11:21;19.40;1.00
12845;DHT22;6489;48.508;9.206;2022-09-09T17:18:07;19.60;1.00
12845;DHT22;6489;48.508;9.206;2022-09-09T17:21:32;19.50;1.00
12845;DHT22;6489;48.508;9.206;2022-09-09T17:24:54;19.50;1.00
12845;DHT22;6489;48.508;9.206;2022-09-09T17:28:16;19.40;1.00
12845;DHT22;6489;48.508;9.206;2022-09-09T17:41:53;19.00;1.00
12845;DHT22;6489;48.508;9.206;2022-09-09T17:45:15;19.00;1.00
12845;DHT22;6489;48.508;9.206;2022-09-09T17:52:01;19.60;1.00
12845;DHT22;6489;48.508;9.206;2022-09-09T17:55:23;19.50;1.00
12845;DHT22;6489;48.508;9.206;2022-09-09T18:05:32;18.70;99.90
12845;DHT22;6489;48.508;9.206;2022-09-09T18:08:56;18.50;99.90
12845;DHT22;6489;48.508;9.206;2022-09-09T18:12:18;18.40;1.00
12845;DHT22;6489;48.508;9.206;2022-09-09T18:19:03;18.20;99.90
12845;DHT22;6489;48.508;9.206;2022-09-09T18:25:52;18.10;99.90
12845;DHT22;6489;48.508;9.206;2022-09-09T18:32:39;18.00;1.00
12845;DHT22;6489;48.508;9.206;2022-09-09T18:36:04;18.00;99.90
12845;DHT22;6489;48.508;9.206;2022-09-09T18:39:28;17.90;99.90
12845;DHT22;6489;48.508;9.206;2022-09-09T18:46:12;17.90;99.90
12845;DHT22;6489;48.508;9.206;2022-09-09T18:49:35;17.70;99.90
12845;DHT22;6489;48.508;9.206;2022-09-09T18:56:21;17.70;99.90
12845;DHT22;6489;48.508;9.206;2022-09-09T18:59:43;17.90;1.00
12845;DHT22;6489;48.508;9.206;2022-09-09T19:06:28;17.60;1.00
12845;DHT22;6489;48.508;9.206;2022-09-09T19:09:51;17.60;1.00
12845;DHT22;6489;48.508;9.206;2022-09-09T19:23:22;17.40;1.00
12845;DHT22;6489;48.508;9.206;2022-09-09T19:26:51;17.20;1.00
12845;DHT22;6489;48.508;9.206;2022-09-09T19:30:14;17.20;1.00
12845;DHT22;6489;48.508;9.206;2022-09-09T19:33:36;17.30;1.00
12845;DHT22;6489;48.508;9.206;2022-09-09T19:36:58;17.40;1.00
12845;DHT22;6489;48.508;9.206;2022-09-09T19:40:20;17.00;1.00
12845;DHT22;6489;48.508;9.206;2022-09-09T19:43:42;16.40;1.00
12845;DHT22;6489;48.508;9.206;2022-09-09T19:47:06;16.90;1.00
12845;DHT22;6489;48.508;9.206;2022-09-09T19:50:27;16.70;1.00
12845;DHT22;6489;48.508;9.206;2022-09-09T19:57:15;16.70;1.00
12845;DHT22;6489;48.508;9.206;2022-09-09T20:08:09;16.80;1.00
12845;DHT22;6489;48.508;9.206;2022-09-09T20:11:31;16.00;1.00
12845;DHT22;6489;48.508;9.206;2022-09-09T20:14:53;17.00;1.00
12845;DHT22;6489;48.508;9.206;2022-09-09T20:21:40;16.40;1.00
12845;DHT22;6489;48.508;9.206;2022-09-09T20:25:03;16.40;1.00
12845;DHT22;6489;48.508;9.206;2022-09-09T20:28:26;16.50;1.00
12845;DHT22;6489;48.508;9.206;2022-09-09T20:31:48;16.10;1.00
12845;DHT22;6489;48.508;9.206;2022-09-09T20:38:33;16.80;1.00
12845;DHT22;6489;48.508;9.206;2022-09-09T20:41:55;16.20;1.00
12845;DHT22;6489;48.508;9.206;2022-09-09T20:45:17;16.50;1.00
12845;DHT22;6489;48.508;9.206;2022-09-09T20:48:39;16.10;1.00
12845;DHT22;6489;48.508;9.206;2022-09-09T20:52:02;16.10;1.00
12845;DHT22;6489;48.508;9.206;2022-09-09T20:55:25;16.10;1.00
12845;DHT22;6489;48.508;9.206;2022-09-09T20:58:47;16.60;1.00
12845;DHT22;6489;48.508;9.206;2022-09-09T21:02:09;16.40;1.00
12845;DHT22;6489;48.508;9.206;2022-09-09T21:15:39;15.90;1.00
12845;DHT22;6489;48.508;9.206;2022-09-09T21:22:24;15.40;1.00
12845;DHT22;6489;48.508;9.206;2022-09-09T21:25:46;16.20;1.00
12845;DHT22;6489;48.508;9.206;2022-09-09T21:29:09;16.40;1.00
12845;DHT22;6489;48.508;9.206;2022-09-09T21:32:32;15.90;1.00
12845;DHT22;6489;48.508;9.206;2022-09-09T21:42:39;15.90;1.00
12845;DHT22;6489;48.508;9.206;2022-09-09T21:46:06;15.90;1.00
12845;DHT22;6489;48.508;9.206;2022-09-09T21:49:28;16.20;1.00
12845;DHT22;6489;48.508;9.206;2022-09-09T21:52:50;15.90;1.00
12845;DHT22;6489;48.508;9.206;2022-09-09T21:56:14;16.50;1.00
12845;DHT22;6489;48.508;9.206;2022-09-09T21:59:36;16.00;1.00
12845;DHT22;6489;48.508;9.206;2022-09-09T22:06:22;15.30;1.00
12845;DHT22;6489;48.508;9.206;2022-09-09T22:13:06;15.20;1.00
12845;DHT22;6489;48.508;9.206;2022-09-09T22:16:29;16.00;1.00
12845;DHT22;6489;48.508;9.206;2022-09-09T22:19:53;15.70;1.00
12845;DHT22;6489;48.508;9.206;2022-09-09T22:23:15;16.30;1.00
12845;DHT22;6489;48.508;9.206;2022-09-09T22:26:37;16.20;1.00
12845;DHT22;6489;48.508;9.206;2022-09-09T22:29:59;16.10;1.00
12845;DHT22;6489;48.508;9.206;2022-09-09T22:33:21;15.70;1.00
12845;DHT22;6489;48.508;9.206;2022-09-09T22:40:07;15.70;1.00
12845;DHT22;6489;48.508;9.206;2022-09-09T22:46:53;15.50;1.00
12845;DHT22;6489;48.508;9.206;2022-09-09T22:50:15;15.90;1.00
12845;DHT22;6489;48.508;9.206;2022-09-09T22:53:39;15.90;1.00
12845;DHT22;6489;48.508;9.206;2022-09-09T22:57:02;16.10;1.00
12845;DHT22;6489;48.508;9.206;2022-09-09T23:00:25;15.70;1.00
12845;DHT22;6489;48.508;9.206;2022-09-09T23:07:10;15.30;1.00
12845;DHT22;6489;48.508;9.206;2022-09-09T23:10:33;16.20;1.00
12845;DHT22;6489;48.508;9.206;2022-09-09T23:13:56;16.20;1.00
12845;DHT22;6489;48.508;9.206;2022-09-09T23:17:20;16.70;1.00
12845;DHT22;6489;48.508;9.206;2022-09-09T23:20:42;15.90;1.00
12845;DHT22;6489;48.508;9.206;2022-09-09T23:24:06;16.20;1.00
12845;DHT22;6489;48.508;9.206;2022-09-09T23:27:29;16.60;1.00
12845;DHT22;6489;48.508;9.206;2022-09-09T23:34:14;16.30;1.00
12845;DHT22;6489;48.508;9.206;2022-09-09T23:41:00;16.10;1.00
12845;DHT22;6489;48.508;9.206;2022-09-09T23:47:45;15.80;1.00
12845;DHT22;6489;48.508;9.206;2022-09-09T23:51:09;15.90;1.00
12845;DHT22;6489;48.508;9.206;2022-09-09T23:54:33;16.10;1.00
12845;DHT22;6489;48.508;9.206;2022-09-09T23:57:55;15.60;1.00
